Time;durP1;ratioP1;P1;durP2;ratioP2;P2;SDS_P1;SDS_P2;PMS_P1;PMS_P2;Temp;Humidity;BMP_temperature;BMP_pressure;BME280_temperature;BME280_humidity;BME280_pressure;Samples;Min_cycle;Max_cycle;Signal;HPM_P1;HPM_P2
2023/03/04 00:00:21;;;;;;;92.30;37.30;;;;;;;-1.23;100.00;96204.28;1018436;29;20085;-67
2023/03/04 00:00:51;;;;;;;99.32;38.63;;;;;;;-1.24;100.00;96202.69;1014776;29;20051;-67
2023/03/04 00:01:22;;;;;;;95.20;37.35;;;;;;;-1.17;100.00;96201.94;1020106;28;20020;-66
2023/03/04 00:01:53;;;;;;;99.55;38.80;;;;;;;-1.18;100.00;96201.16;1024455;28;20031;-67
2023/03/04 00:02:23;;;;;;;91.28;36.85;;;;;;;-1.28;100.00;96196.28;1026840;28;20620;-68
2023/03/04 00:02:53;;;;;;;96.65;38.00;;;;;;;-1.24;100.00;96194.97;1022309;28;20027;-68
2023/03/04 00:03:24;;;;;;;98.88;38.40;;;;;;;-1.19;100.00;96200.38;1019745;29;20038;-68
2023/03/04 00:03:54;;;;;;;96.38;37.35;;;;;;;-1.18;100.00;96201.16;1022457;28;20023;-68
2023/03/04 00:04:25;;;;;;;103.47;40.40;;;;;;;-1.19;100.00;96202.16;1018631;29;20197;-66
2023/03/04 00:04:55;;;;;;;100.35;36.50;;;;;;;-1.19;100.00;96197.78;1025330;28;20081;-65
2023/03/04 00:05:26;;;;;;;105.32;39.65;;;;;;;-1.18;100.00;96188.28;1022296;28;20035;-64
2023/03/04 00:05:56;;;;;;;97.35;38.60;;;;;;;-1.09;100.00;96204.47;1023826;28;20034;-65
2023/03/04 00:06:26;;;;;;;93.50;39.33;;;;;;;-1.12;100.00;96192.72;1025524;28;20483;-66
2023/03/04 00:06:57;;;;;;;108.35;41.35;;;;;;;-1.05;100.00;96198.75;1018178;28;20116;-67
2023/03/04 00:07:29;;;;;;;118.44;41.30;;;;;;;-1.03;100.00;96204.53;1014271;29;20111;-67
2023/03/04 00:07:59;;;;;;;106.55;41.40;;;;;;;-0.99;100.00;96205.78;1010816;29;20119;-67
2023/03/04 00:08:30;;;;;;;109.32;42.65;;;;;;;-0.99;100.00;96192.09;1017463;28;20099;-66
2023/03/04 00:09:02;;;;;;;114.63;41.90;;;;;;;-0.93;100.00;96200.91;1017346;29;20405;-68
2023/03/04 00:09:33;;;;;;;105.86;40.98;;;;;;;-0.98;100.00;96204.78;1021828;28;20038;-66
2023/03/04 00:10:04;;;;;;;98.13;39.58;;;;;;;-0.99;100.00;96199.84;1014424;29;20036;-66
2023/03/04 00:10:34;;;;;;;113.90;42.24;;;;;;;-0.89;100.00;96208.09;1018254;29;20028;-67
2023/03/04 00:11:05;;;;;;;102.03;40.63;;;;;;;-0.90;100.00;96203.13;1018646;29;20869;-68
2023/03/04 00:11:35;;;;;;;111.47;42.40;;;;;;;-0.96;100.00;96202.84;1015109;29;20035;-66
2023/03/04 00:12:07;;;;;;;105.50;40.53;;;;;;;-0.97;100.00;96205.63;1014453;29;20031;-67
2023/03/04 00:12:37;;;;;;;109.96;40.42;;;;;;;-0.97;100.00;96208.19;1018532;29;20042;-67
2023/03/04 00:13:08;;;;;;;115.63;41.13;;;;;;;-1.00;100.00;96211.13;1018979;28;20047;-66
2023/03/04 00:13:38;;;;;;;109.32;41.80;;;;;;;-1.06;100.00;96210.06;1028378;28;20030;-67
2023/03/04 00:14:09;;;;;;;102.35;40.13;;;;;;;-1.10;100.00;96213.97;1025513;28;20045;-68
2023/03/04 00:14:40;;;;;;;108.00;40.70;;;;;;;-1.12;100.00;96210.75;1018134;29;20513;-65
2023/03/04 00:15:10;;;;;;;101.53;37.97;;;;;;;-1.15;100.00;96215.47;1014495;29;20063;-66
2023/03/04 00:15:41;;;;;;;111.60;40.67;;;;;;;-1.20;100.00;96213.44;1010650;29;20035;-68
2023/03/04 00:16:11;;;;;;;106.22;39.80;;;;;;;-1.24;100.00;96207.84;1014293;29;20031;-66
2023/03/04 00:16:41;;;;;;;100.75;38.80;;;;;;;-1.26;100.00;96206.41;1021446;29;20027;-67
2023/03/04 00:17:12;;;;;;;93.00;38.38;;;;;;;-1.36;100.00;96196.38;1018377;28;20609;-66
2023/03/04 00:17:44;;;;;;;102.13;39.80;;;;;;;-1.28;100.00;96210.91;1021194;28;20061;-66
2023/03/04 00:18:15;;;;;;;109.62;39.52;;;;;;;-1.36;100.00;96196.38;1024434;28;20054;-69
2023/03/04 00:18:45;;;;;;;125.68;43.53;;;;;;;-1.30;100.00;96205.16;1020259;28;20046;-68
2023/03/04 00:19:16;;;;;;;110.40;40.05;;;;;;;-1.35;100.00;96215.97;1021083;28;20030;-68
2023/03/04 00:19:46;;;;;;;107.80;40.85;;;;;;;-1.27;100.00;96208.19;1022040;29;20019;-68
2023/03/04 00:20:17;;;;;;;103.43;40.33;;;;;;;-1.36;100.00;96204.09;1018237;29;20608;-69
2023/03/04 00:20:48;;;;;;;115.78;40.72;;;;;;;-1.30;100.00;96213.69;1017736;29;20839;-66
2023/03/04 00:21:19;;;;;;;122.64;42.04;;;;;;;-1.29;100.00;96212.69;1022386;29;20030;-69
2023/03/04 00:21:49;;;;;;;108.82;40.83;;;;;;;-1.43;100.00;96193.69;1022414;28;20027;-65
2023/03/04 00:22:19;;;;;;;110.35;41.38;;;;;;;-1.34;100.00;96215.00;1022111;28;20034;-67
2023/03/04 00:22:50;;;;;;;112.90;42.90;;;;;;;-1.40;100.00;96200.28;1026101;28;20022;-69
2023/03/04 00:23:20;;;;;;;110.72;42.20;;;;;;;-1.31;100.00;96212.09;1026229;28;20038;-69
2023/03/04 00:23:51;;;;;;;112.55;40.92;;;;;;;-1.31;100.00;96211.25;1022224;28;20122;-67
2023/03/04 00:24:21;;;;;;;114.10;41.20;;;;;;;-1.35;100.00;96215.19;1025438;28;20038;-67
2023/03/04 00:24:52;;;;;;;115.88;42.15;;;;;;;-1.35;100.00;96215.19;1021839;29;20023;-68
2023/03/04 00:25:22;;;;;;;122.25;43.10;;;;;;;-1.37;100.00;96217.94;1013654;29;20482;-66
2023/03/04 00:25:53;;;;;;;112.68;40.15;;;;;;;-1.36;100.00;96214.38;1014254;29;20035;-67
2023/03/04 00:26:23;;;;;;;121.38;44.45;;;;;;;-1.41;100.00;96206.38;1018320;29;20023;-67
2023/03/04 00:26:54;;;;;;;119.30;41.83;;;;;;;-1.39;100.00;96213.94;1014520;29;20403;-66
2023/03/04 00:27:24;;;;;;;124.85;43.60;;;;;;;-1.41;100.00;96211.53;1024401;28;20078;-67
2023/03/04 00:27:55;;;;;;;123.63;43.78;;;;;;;-1.43;100.00;96210.91;1030271;28;20029;-67
2023/03/04 00:28:25;;;;;;;121.47;41.58;;;;;;;-1.46;100.00;96208.69;1030277;28;20015;-68
2023/03/04 00:28:55;;;;;;;109.45;43.45;;;;;;;-1.46;100.00;96214.63;1026242;28;20547;-67
2023/03/04 00:29:26;;;;;;;118.40;43.38;;;;;;;-1.48;100.00;96213.19;1025451;28;20019;-68
2023/03/04 00:29:56;;;;;;;117.03;43.20;;;;;;;-1.48;100.00;96215.78;1025934;28;20034;-68
2023/03/04 00:30:27;;;;;;;116.38;41.28;;;;;;;-1.51;100.00;96206.66;1022061;28;20019;-66
2023/03/04 00:30:57;;;;;;;111.30;42.38;;;;;;;-1.53;100.00;96213.72;1028016;28;20027;-66
2023/03/04 00:31:28;;;;;;;117.28;41.30;;;;;;;-1.55;100.00;96205.38;1026328;28;20049;-68
2023/03/04 00:31:58;;;;;;;115.72;41.78;;;;;;;-1.52;100.00;96214.53;1026177;28;20033;-66
2023/03/04 00:32:29;;;;;;;104.80;40.95;;;;;;;-1.60;100.00;96201.75;1027647;28;20035;-65
2023/03/04 00:32:59;;;;;;;122.90;46.60;;;;;;;-1.55;100.00;96217.44;1026369;28;20030;-68
2023/03/04 00:33:29;;;;;;;116.95;40.63;;;;;;;-1.54;100.00;96216.47;1030334;28;20034;-68
2023/03/04 00:34:00;;;;;;;115.50;42.40;;;;;;;-1.56;100.00;96213.28;1028829;28;20050;-67
2023/03/04 00:34:30;;;;;;;111.32;43.05;;;;;;;-1.57;100.00;96209.13;1025495;28;20027;-69
2023/03/04 00:35:01;;;;;;;116.05;42.63;;;;;;;-1.63;100.00;96202.09;1022221;28;20646;-67
2023/03/04 00:35:31;;;;;;;119.80;43.17;;;;;;;-1.56;100.00;96210.72;1022257;28;20071;-66
2023/03/04 00:36:02;;;;;;;111.63;41.55;;;;;;;-1.64;100.00;96200.47;1022323;28;20027;-68
2023/03/04 00:36:33;;;;;;;123.10;42.20;;;;;;;-1.56;100.00;96211.50;1022307;29;20756;-69
2023/03/04 00:37:03;;;;;;;124.32;43.85;;;;;;;-1.52;100.00;96214.53;1018131;29;20548;-68
2023/03/04 00:37:33;;;;;;;119.15;43.42;;;;;;;-1.51;100.00;96216.13;1017042;29;20024;-68
2023/03/04 00:38:04;;;;;;;115.93;42.53;;;;;;;-1.53;100.00;96220.66;1018518;28;20028;-68
2023/03/04 00:38:35;;;;;;;118.28;43.03;;;;;;;-1.55;100.00;96215.66;1022299;28;20031;-67
2023/03/04 00:39:05;;;;;;;117.38;42.08;;;;;;;-1.51;100.00;96216.94;1015580;29;20032;-67
2023/03/04 00:39:36;;;;;;;118.38;42.40;;;;;;;-1.51;100.00;96211.78;1017611;29;20637;-68
2023/03/04 00:40:07;;;;;;;121.47;43.15;;;;;;;-1.61;100.00;96200.97;1018464;29;20035;-67
2023/03/04 00:40:37;;;;;;;118.08;43.16;;;;;;;-1.52;100.00;96222.25;1018584;28;20505;-67
2023/03/04 00:41:08;;;;;;;117.68;43.67;;;;;;;-1.58;100.00;96203.16;1019768;28;20045;-66
2023/03/04 00:41:38;;;;;;;115.72;43.47;;;;;;;-1.52;100.00;96214.53;1010716;29;20044;-67
2023/03/04 00:42:09;;;;;;;124.88;42.95;;;;;;;-1.56;100.00;96214.09;1010716;29;20028;-68
2023/03/04 00:42:39;;;;;;;120.30;42.75;;;;;;;-1.61;100.00;96211.25;1018253;29;20086;-67
2023/03/04 00:43:10;;;;;;;129.27;42.45;;;;;;;-1.51;100.00;96216.13;1014568;28;20164;-70
2023/03/04 00:43:40;;;;;;;108.28;42.50;;;;;;;-1.54;100.00;96221.63;1022447;29;20109;-67
2023/03/04 00:44:11;;;;;;;106.35;42.35;;;;;;;-1.52;100.00;96219.69;1022303;28;20023;-66
2023/03/04 00:44:41;;;;;;;124.47;44.67;;;;;;;-1.51;100.00;96216.13;1021392;28;20024;-68
2023/03/04 00:45:11;;;;;;;118.90;43.17;;;;;;;-1.56;100.00;96206.38;1026132;28;20094;-68
2023/03/04 00:45:42;;;;;;;108.63;39.65;;;;;;;-1.56;100.00;96213.28;1026387;28;20029;-66
2023/03/04 00:46:12;;;;;;;120.18;41.40;;;;;;;-1.58;100.00;96220.38;1022148;28;20024;-67
2023/03/04 00:46:43;;;;;;;116.47;43.95;;;;;;;-1.61;100.00;96220.72;1026328;28;20023;-67
2023/03/04 00:47:13;;;;;;;105.35;40.10;;;;;;;-1.64;100.00;96218.50;1022262;28;20023;-68
2023/03/04 00:47:44;;;;;;;112.10;41.05;;;;;;;-1.67;100.00;96220.44;1026201;28;20034;-68
2023/03/04 00:48:15;;;;;;;107.60;40.20;;;;;;;-1.64;100.00;96218.50;1026202;28;20889;-67
2023/03/04 00:48:45;;;;;;;111.36;40.50;;;;;;;-1.62;100.00;96222.50;1026361;28;20027;-67
2023/03/04 00:49:16;;;;;;;114.07;42.08;;;;;;;-1.54;100.00;96214.72;1021681;29;20031;-68
2023/03/04 00:49:46;;;;;;;106.72;39.97;;;;;;;-1.57;100.00;96227.13;1022001;28;20019;-67
2023/03/04 00:50:17;;;;;;;114.70;42.70;;;;;;;-1.68;100.00;96211.16;1018534;29;20028;-66
2023/03/04 00:50:48;;;;;;;117.82;42.92;;;;;;;-1.67;100.00;96217.88;1026393;28;20061;-66
2023/03/04 00:51:18;;;;;;;116.35;40.58;;;;;;;-1.62;100.00;96222.50;1030253;28;20031;-68
2023/03/04 00:51:48;;;;;;;98.70;38.97;;;;;;;-1.66;100.00;96213.53;1030107;28;20273;-66
2023/03/04 00:52:19;;;;;;;103.63;40.95;;;;;;;-1.68;100.00;96226.56;1026188;28;20027;-69
2023/03/04 00:52:49;;;;;;;107.75;40.88;;;;;;;-1.70;100.00;96220.78;1018358;29;20016;-68
2023/03/04 00:53:20;;;;;;;101.53;39.95;;;;;;;-1.77;100.00;96207.03;1024590;28;20059;-68
2023/03/04 00:53:51;;;;;;;110.05;39.95;;;;;;;-1.73;100.00;96218.56;1022265;28;20128;-68
2023/03/04 00:54:21;;;;;;;100.97;40.28;;;;;;;-1.72;100.00;96219.38;1022284;29;20019;-67
2023/03/04 00:54:52;;;;;;;105.05;40.85;;;;;;;-1.72;100.00;96224.50;1022095;28;20630;-67
2023/03/04 00:55:22;;;;;;;105.18;41.47;;;;;;;-1.75;100.00;96214.56;1022372;28;20094;-67
2023/03/04 00:55:53;;;;;;;108.18;39.70;;;;;;;-1.75;100.00;96214.56;1018119;29;20091;-69
2023/03/04 00:56:23;;;;;;;101.10;38.53;;;;;;;-1.73;100.00;96221.13;1018264;29;20063;-68
2023/03/04 00:56:54;;;;;;;100.10;39.22;;;;;;;-1.70;100.00;96213.09;1018140;29;20030;-68
2023/03/04 00:57:24;;;;;;;110.38;40.15;;;;;;;-1.69;100.00;96219.03;1018389;29;20028;-68
2023/03/04 00:57:54;;;;;;;106.63;40.08;;;;;;;-1.78;100.00;96207.97;1026166;28;20113;-67
2023/03/04 00:58:25;;;;;;;102.35;39.60;;;;;;;-1.75;100.00;96220.50;1026137;28;20030;-68
2023/03/04 00:58:55;;;;;;;101.53;39.25;;;;;;;-1.75;100.00;96212.78;1026161;28;20366;-67
2023/03/04 00:59:26;;;;;;;105.00;38.50;;;;;;;-1.76;100.00;96212.97;1021488;29;20039;-67
2023/03/04 00:59:56;;;;;;;102.55;39.80;;;;;;;-1.76;100.00;96213.78;1017979;29;20031;-67
2023/03/04 01:00:27;;;;;;;105.13;40.67;;;;;;;-1.77;100.00;96214.75;1018309;29;20020;-67
2023/03/04 01:00:57;;;;;;;99.68;39.05;;;;;;;-1.80;100.00;96202.22;1018373;28;20015;-67
2023/03/04 01:01:28;;;;;;;109.30;39.60;;;;;;;-1.78;100.00;96215.69;1026190;28;20588;-69
2023/03/04 01:01:58;;;;;;;105.03;39.00;;;;;;;-1.79;100.00;96208.97;1029983;28;20049;-69
2023/03/04 01:02:28;;;;;;;111.68;39.05;;;;;;;-1.80;100.00;96209.94;1016572;29;20062;-66
2023/03/04 01:02:59;;;;;;;108.32;39.53;;;;;;;-1.88;100.00;96194.56;1018227;29;20055;-68
2023/03/04 01:03:31;;;;;;;106.40;39.30;;;;;;;-1.82;100.00;96204.16;1018005;29;20019;-68
2023/03/04 01:04:01;;;;;;;110.08;40.34;;;;;;;-1.72;100.00;96214.22;1018625;28;20627;-67
2023/03/04 01:04:32;;;;;;;115.53;42.72;;;;;;;-1.73;100.00;96210.84;1022103;29;20110;-67
2023/03/04 01:05:03;;;;;;;102.13;40.22;;;;;;;-1.80;100.00;96199.66;1018375;29;20022;-68
2023/03/04 01:05:34;;;;;;;111.97;39.97;;;;;;;-1.70;100.00;96207.94;1010371;29;20025;-66
2023/03/04 01:06:05;;;;;;;111.84;41.58;;;;;;;-1.61;100.00;96211.25;1010476;29;20074;-66
2023/03/04 01:06:35;;;;;;;115.50;41.28;;;;;;;-1.56;100.00;96205.56;1010500;29;20048;-67
2023/03/04 01:07:06;;;;;;;113.05;42.70;;;;;;;-1.56;100.00;96203.00;1014402;29;20038;-68
2023/03/04 01:07:37;;;;;;;116.55;40.97;;;;;;;-1.60;100.00;96206.91;1022182;29;20497;-69
2023/03/04 01:08:07;;;;;;;114.38;43.22;;;;;;;-1.58;100.00;96199.78;1022296;28;20039;-67
2023/03/04 01:08:38;;;;;;;112.68;43.17;;;;;;;-1.66;100.00;96193.75;1028642;28;20031;-68
2023/03/04 01:09:08;;;;;;;105.53;42.20;;;;;;;-1.63;100.00;96195.19;1022138;29;20118;-68
2023/03/04 01:09:39;;;;;;;116.35;41.78;;;;;;;-1.64;100.00;96198.72;1021620;29;20043;-68
2023/03/04 01:10:10;;;;;;;103.53;40.88;;;;;;;-1.58;100.00;96202.34;1022913;28;20031;-67
2023/03/04 01:10:41;;;;;;;99.52;39.20;;;;;;;-1.55;100.00;96202.00;1018321;29;20103;-68
2023/03/04 01:11:11;;;;;;;101.57;40.35;;;;;;;-1.57;100.00;96191.13;1022192;29;20793;-68
2023/03/04 01:11:42;;;;;;;116.40;42.65;;;;;;;-1.50;100.00;96197.94;1022406;29;20031;-68
2023/03/04 01:12:12;;;;;;;107.53;43.92;;;;;;;-1.46;100.00;96195.81;1021971;28;20031;-67
2023/03/04 01:12:42;;;;;;;118.43;44.40;;;;;;;-1.44;100.00;96199.81;1022193;29;20027;-66
2023/03/04 01:13:13;;;;;;;107.43;41.22;;;;;;;-1.41;100.00;96190.94;1018078;29;20689;-69
2023/03/04 01:13:43;;;;;;;109.53;41.88;;;;;;;-1.45;100.00;96187.13;1016689;29;20075;-68
2023/03/04 01:14:14;;;;;;;109.53;43.08;;;;;;;-1.41;100.00;96190.94;1018172;29;20035;-65
2023/03/04 01:14:44;;;;;;;112.07;41.97;;;;;;;-1.46;100.00;96191.47;1022345;28;20030;-67
2023/03/04 01:15:15;;;;;;;101.05;39.47;;;;;;;-1.39;100.00;96196.72;1026033;28;20766;-68
2023/03/04 01:15:45;;;;;;;112.72;43.45;;;;;;;-1.37;100.00;96197.34;1026226;28;20062;-68
2023/03/04 01:16:16;;;;;;;107.65;43.00;;;;;;;-1.49;100.00;96178.94;1021911;29;20031;-66
2023/03/04 01:16:47;;;;;;;108.50;44.53;;;;;;;-1.40;100.00;96191.75;1026282;28;20073;-69
2023/03/04 01:17:17;;;;;;;110.20;43.14;;;;;;;-1.40;100.00;96197.69;1021635;28;20023;-68
2023/03/04 01:17:48;;;;;;;107.53;43.22;;;;;;;-1.39;100.00;96191.56;1022041;29;20042;-65
2023/03/04 01:18:18;;;;;;;101.75;39.55;;;;;;;-1.42;100.00;96194.50;1022018;29;20035;-68
2023/03/04 01:18:49;;;;;;;97.75;40.33;;;;;;;-1.44;100.00;96191.31;1022094;28;20046;-68
2023/03/04 01:19:20;;;;;;;105.05;41.25;;;;;;;-1.42;100.00;96189.34;1021473;29;20039;-67
2023/03/04 01:19:50;;;;;;;115.06;40.94;;;;;;;-1.44;100.00;96188.75;1021994;28;20083;-66
2023/03/04 01:20:21;;;;;;;105.93;41.28;;;;;;;-1.48;100.00;96180.53;1017191;29;20043;-67
2023/03/04 01:20:51;;;;;;;102.53;40.50;;;;;;;-1.55;100.00;96171.13;1018140;29;20390;-67
2023/03/04 01:21:22;;;;;;;96.47;38.88;;;;;;;-1.50;100.00;96174.00;1018271;29;20855;-67
2023/03/04 01:21:53;;;;;;;96.53;38.08;;;;;;;-1.39;100.00;96183.84;1025959;28;20026;-67
2023/03/04 01:22:23;;;;;;;101.45;40.38;;;;;;;-1.39;100.00;96188.19;1029687;28;20088;-66
2023/03/04 01:22:53;;;;;;;94.65;40.30;;;;;;;-1.43;100.00;96191.13;1030013;28;20503;-67
2023/03/04 01:23:24;;;;;;;99.43;40.22;;;;;;;-1.45;100.00;96190.50;1030253;28;20371;-67
2023/03/04 01:23:54;;;;;;;99.88;38.95;;;;;;;-1.45;100.00;96190.50;1029894;28;20026;-66
2023/03/04 01:24:25;;;;;;;98.65;39.83;;;;;;;-1.46;100.00;96183.75;1022174;29;20027;-66
2023/03/04 01:24:55;;;;;;;95.70;37.83;;;;;;;-1.44;100.00;96183.59;1022042;29;20715;-69
2023/03/04 01:25:26;;;;;;;111.82;40.58;;;;;;;-1.47;100.00;96186.50;1017434;29;20024;-67
2023/03/04 01:25:56;;;;;;;103.00;39.85;;;;;;;-1.50;100.00;96184.28;1014284;29;20028;-68
2023/03/04 01:26:26;;;;;;;93.22;39.38;;;;;;;-1.52;100.00;96178.50;1022256;29;20027;-67
2023/03/04 01:26:57;;;;;;;98.82;38.10;;;;;;;-1.58;100.00;96189.50;1022037;28;20034;-68
2023/03/04 01:27:27;;;;;;;96.65;38.03;;;;;;;-1.59;100.00;96183.56;1029467;28;20026;-68
2023/03/04 01:27:58;;;;;;;96.95;38.40;;;;;;;-1.59;100.00;96187.91;1026080;28;20073;-66
2023/03/04 01:28:28;;;;;;;104.60;37.67;;;;;;;-1.59;100.00;96183.56;1025960;28;20027;-66
2023/03/04 01:28:59;;;;;;;93.88;37.28;;;;;;;-1.63;100.00;96181.50;1023956;28;20023;-65
2023/03/04 01:29:29;;;;;;;99.47;38.08;;;;;;;-1.65;100.00;96184.25;1021518;28;20015;-67
2023/03/04 01:30:00;;;;;;;95.72;38.78;;;;;;;-1.74;100.00;96180.19;1026121;28;20148;-67
2023/03/04 01:30:30;;;;;;;90.22;38.78;;;;;;;-1.69;100.00;96183.81;1025949;28;20031;-67
2023/03/04 01:31:02;;;;;;;90.72;38.08;;;;;;;-1.68;100.00;96184.59;1021963;29;20028;-69
2023/03/04 01:31:32;;;;;;;85.66;36.88;;;;;;;-1.69;100.00;96188.94;1022123;29;20042;-68
2023/03/04 01:32:03;;;;;;;96.18;38.33;;;;;;;-1.73;100.00;96177.41;1021941;29;20027;-69
2023/03/04 01:32:33;;;;;;;95.40;37.88;;;;;;;-1.67;100.00;96189.59;1025584;28;20031;-68
2023/03/04 01:33:04;;;;;;;97.00;39.30;;;;;;;-1.78;100.00;96166.03;1030028;28;20523;-67
2023/03/04 01:33:34;;;;;;;92.75;36.28;;;;;;;-1.70;100.00;96187.34;1030149;28;20088;-68
2023/03/04 01:34:05;;;;;;;95.63;38.15;;;;;;;-1.73;100.00;96187.69;1030020;28;20030;-67
2023/03/04 01:34:35;;;;;;;93.95;38.58;;;;;;;-1.73;100.00;96185.13;1029998;28;20131;-67
2023/03/04 01:35:06;;;;;;;94.97;39.17;;;;;;;-1.70;100.00;96182.22;1026016;28;20134;-67
2023/03/04 01:35:36;;;;;;;93.18;38.75;;;;;;;-1.70;100.00;96182.22;1025979;28;20026;-68
2023/03/04 01:36:07;;;;;;;91.90;37.08;;;;;;;-1.64;100.00;96182.47;1026105;28;20060;-67
2023/03/04 01:36:37;;;;;;;95.53;37.22;;;;;;;-1.61;100.00;96185.53;1026108;28;20686;-67
2023/03/04 01:37:08;;;;;;;102.03;38.67;;;;;;;-1.64;100.00;96179.91;1026283;28;20401;-67
2023/03/04 01:37:38;;;;;;;97.78;39.10;;;;;;;-1.59;100.00;96177.63;1022062;28;20054;-67
2023/03/04 01:38:09;;;;;;;101.57;38.05;;;;;;;-1.54;100.00;96183.00;1022075;29;20023;-67
2023/03/04 01:38:39;;;;;;;98.90;39.08;;;;;;;-1.56;100.00;96178.06;1022238;29;20038;-66
2023/03/04 01:39:09;;;;;;;102.70;42.03;;;;;;;-1.54;100.00;96173.56;1021919;28;20031;-68
2023/03/04 01:39:40;;;;;;;95.70;39.95;;;;;;;-1.55;100.00;96166.78;1021430;29;20031;-66
2023/03/04 01:40:11;;;;;;;100.30;38.83;;;;;;;-1.47;100.00;96177.00;1014205;29;20036;-67
2023/03/04 01:40:42;;;;;;;105.72;38.82;;;;;;;-1.50;100.00;96171.41;1018196;29;20031;-67
2023/03/04 01:41:12;;;;;;;109.72;40.90;;;;;;;-1.48;100.00;96174.59;1021934;29;20025;-68
2023/03/04 01:41:43;;;;;;;99.05;41.10;;;;;;;-1.50;100.00;96176.56;1018302;29;20023;-67
2023/03/04 01:42:18;;;;;;;96.63;39.42;;;;;;;-1.60;100.00;96161.38;1018002;29;20027;-67
2023/03/04 01:42:48;;;;;;;103.48;38.38;;;;;;;-1.64;100.00;96162.72;1014756;29;20075;-67
2023/03/04 01:43:24;;;;;;;106.63;38.65;;;;;;;-1.55;100.00;96174.50;1015480;29;20139;-68
2023/03/04 01:43:55;;;;;;;98.14;38.22;;;;;;;-1.44;100.00;96175.88;1022101;29;20484;-66
2023/03/04 01:44:26;;;;;;;106.20;41.16;;;;;;;-1.50;100.00;96171.41;1024401;28;20051;-66
2023/03/04 01:44:56;;;;;;;102.60;37.90;;;;;;;-1.51;100.00;96169.81;1018033;29;20035;-64
2023/03/04 01:45:34;;;;;;;102.05;39.20;;;;;;;-1.56;100.00;96172.13;1018089;29;20442;-67
2023/03/04 01:46:04;;;;;;;92.14;38.78;;;;;;;-1.63;100.00;96161.72;1021902;28;20039;-66
2023/03/04 01:46:35;;;;;;;105.07;40.55;;;;;;;-1.70;100.00;96156.50;1021158;29;20031;-67
2023/03/04 01:47:05;;;;;;;97.10;40.08;;;;;;;-1.68;100.00;96164.84;1027259;28;20023;-66
2023/03/04 01:47:36;;;;;;;100.10;40.28;;;;;;;-1.63;100.00;96166.88;1025882;28;20564;-67
2023/03/04 01:48:08;;;;;;;110.75;40.63;;;;;;;-1.64;100.00;96169.59;1026093;28;20018;-68
2023/03/04 01:48:38;;;;;;;99.44;37.22;;;;;;;-1.72;100.00;96158.41;1018336;29;20028;-68
2023/03/04 01:49:09;;;;;;;107.63;39.85;;;;;;;-1.73;100.00;96154.25;1014266;29;20059;-67
2023/03/04 01:49:39;;;;;;;106.55;38.50;;;;;;;-1.62;100.00;96162.53;1013014;29;20030;-69
2023/03/04 01:50:12;;;;;;;107.53;40.22;;;;;;;-1.67;100.00;96156.13;1018037;29;20027;-68
2023/03/04 01:50:43;;;;;;;98.66;38.24;;;;;;;-1.67;100.00;96171.56;1014384;29;20083;-67
2023/03/04 01:51:14;;;;;;;119.60;39.50;;;;;;;-1.72;100.00;96168.72;1014227;29;20562;-68
2023/03/04 01:51:48;;;;;;;106.70;40.22;;;;;;;-1.80;100.00;96158.50;1021749;28;20023;-69
2023/03/04 01:52:18;;;;;;;99.68;38.68;;;;;;;-1.69;100.00;96170.16;1026176;28;20838;-66
2023/03/04 01:52:49;;;;;;;99.90;39.20;;;;;;;-1.70;100.00;96164.19;1018118;29;20038;-68
2023/03/04 01:53:25;;;;;;;101.72;38.97;;;;;;;-1.69;100.00;96167.56;1021982;28;20502;-69
2023/03/04 01:53:55;;;;;;;104.14;40.52;;;;;;;-1.81;100.00;96159.50;1021950;29;20059;-66
2023/03/04 01:54:26;;;;;;;108.57;39.72;;;;;;;-1.74;100.00;96168.09;1025270;28;20283;-67
2023/03/04 01:54:56;;;;;;;104.18;39.30;;;;;;;-1.78;100.00;96166.03;1021904;28;20031;-66
2023/03/04 01:55:27;;;;;;;105.25;38.53;;;;;;;-1.83;100.00;96166.56;1018143;28;20091;-67
2023/03/04 01:56:00;;;;;;;103.93;40.25;;;;;;;-1.83;100.00;96160.63;1014130;29;20401;-65
2023/03/04 01:56:35;;;;;;;104.46;39.14;;;;;;;-1.83;100.00;96164.00;1014042;29;20031;-67
2023/03/04 01:57:26;;;;;;;104.30;39.88;;;;;;;-1.80;100.00;96168.00;1018095;29;20090;-67
2023/03/04 01:57:56;;;;;;;107.38;40.00;;;;;;;-1.95;100.00;96142.25;1021408;29;20122;-68
2023/03/04 01:58:28;;;;;;;104.30;38.85;;;;;;;-1.85;100.00;96157.44;1021619;28;20042;-67
2023/03/04 01:59:07;;;;;;;111.32;38.74;;;;;;;-1.81;100.00;96164.63;1023738;28;20061;-65
2023/03/04 01:59:39;;;;;;;105.86;39.30;;;;;;;-1.84;100.00;96154.69;1025426;28;20122;-69
2023/03/04 02:00:17;;;;;;;112.04;38.04;;;;;;;-1.83;100.00;96156.28;1024145;28;20046;-69
2023/03/04 02:00:47;;;;;;;109.20;38.92;;;;;;;-1.81;100.00;96162.06;1024602;28;20085;-68
2023/03/04 02:01:18;;;;;;;110.68;40.88;;;;;;;-1.80;100.00;96160.28;1026093;28;20436;-67
2023/03/04 02:01:52;;;;;;;119.55;43.10;;;;;;;-1.78;100.00;96156.53;1025936;28;20027;-65
2023/03/04 02:02:23;;;;;;;119.34;41.88;;;;;;;-1.83;100.00;96150.34;1023131;28;20558;-64
2023/03/04 02:02:58;;;;;;;108.80;40.90;;;;;;;-1.75;100.00;96156.19;1021931;29;20043;-68
2023/03/04 02:03:29;;;;;;;116.48;41.06;;;;;;;-1.75;100.00;96163.13;1021767;28;20025;-66
2023/03/04 02:03:59;;;;;;;115.32;41.30;;;;;;;-1.73;100.00;96159.41;1014349;29;20450;-66
2023/03/04 02:04:31;;;;;;;110.53;42.63;;;;;;;-1.74;100.00;96160.38;1014768;29;20055;-69
2023/03/04 02:05:01;;;;;;;110.26;41.32;;;;;;;-1.83;100.00;96148.56;1015318;29;20028;-66
2023/03/04 02:05:32;;;;;;;103.88;41.08;;;;;;;-1.76;100.00;96152.03;1018379;29;20111;-68
2023/03/04 02:06:02;;;;;;;113.82;40.80;;;;;;;-1.84;100.00;96143.63;1018101;29;20792;-65
2023/03/04 02:06:34;;;;;;;108.93;41.83;;;;;;;-1.74;100.00;96157.03;1017941;29;20031;-63
2023/03/04 02:07:05;;;;;;;122.68;41.64;;;;;;;-1.79;100.00;96149.81;1014041;29;20023;-66
2023/03/04 02:07:35;;;;;;;108.05;41.90;;;;;;;-1.74;100.00;96159.59;1014187;29;20058;-67
2023/03/04 02:08:06;;;;;;;113.85;41.45;;;;;;;-1.79;100.00;96151.59;1014325;29;20020;-68
2023/03/04 02:08:36;;;;;;;114.13;42.05;;;;;;;-1.75;100.00;96152.84;1021910;28;20122;-67
2023/03/04 02:09:07;;;;;;;110.65;40.20;;;;;;;-1.88;100.00;96137.19;1022135;28;20622;-67
2023/03/04 02:09:38;;;;;;;112.80;42.67;;;;;;;-1.75;100.00;96152.84;1025334;28;20022;-67
2023/03/04 02:10:09;;;;;;;111.43;41.38;;;;;;;-1.77;100.00;96154.81;1017949;29;20018;-66
2023/03/04 02:10:41;;;;;;;120.68;43.10;;;;;;;-1.80;100.00;96155.94;1021957;29;20779;-68
2023/03/04 02:11:11;;;;;;;116.76;41.78;;;;;;;-1.91;100.00;96143.50;1021833;29;20106;-68
2023/03/04 02:11:42;;;;;;;112.88;41.45;;;;;;;-1.91;100.00;96143.50;1026020;28;20477;-66
2023/03/04 02:12:12;;;;;;;106.78;41.38;;;;;;;-1.90;100.00;96148.47;1021696;29;20020;-66
2023/03/04 02:12:43;;;;;;;104.00;39.08;;;;;;;-1.91;100.00;96153.81;1026045;28;20019;-68
2023/03/04 02:13:13;;;;;;;107.57;40.15;;;;;;;-1.88;100.00;96155.19;1021890;29;20019;-67
2023/03/04 02:13:44;;;;;;;103.15;38.58;;;;;;;-1.88;100.00;96153.44;1021927;28;20724;-67
2023/03/04 02:14:15;;;;;;;100.87;40.93;;;;;;;-1.90;100.00;96158.75;1017929;29;20057;-67
2023/03/04 02:14:45;;;;;;;106.75;38.90;;;;;;;-1.94;100.00;96146.44;1018024;29;20043;-67
2023/03/04 02:15:15;;;;;;;103.50;40.67;;;;;;;-1.91;100.00;96154.59;1021804;28;20031;-67
2023/03/04 02:15:46;;;;;;;120.18;43.15;;;;;;;-1.85;100.00;96158.22;1022115;28;20015;-67
2023/03/04 02:16:17;;;;;;;109.97;43.78;;;;;;;-1.91;100.00;96149.44;1022252;29;20034;-68
2023/03/04 02:16:47;;;;;;;111.47;40.22;;;;;;;-1.90;100.00;96142.53;1022775;29;20031;-66
2023/03/04 02:17:26;;;;;;;121.20;42.53;;;;;;;-1.82;100.00;96157.09;1018660;29;20034;-66
2023/03/04 02:17:57;;;;;;;120.43;44.08;;;;;;;-1.79;100.00;96152.38;1015068;29;20113;-67
2023/03/04 02:18:27;;;;;;;117.75;41.50;;;;;;;-1.81;100.00;96158.66;1016258;29;20543;-69
2023/03/04 02:18:58;;;;;;;116.33;42.57;;;;;;;-1.84;100.00;96153.91;1019909;29;20023;-69